sensor_id;sensor_type;location;lat;lon;timestamp;P1;durP1;ratioP1;P2;durP2;ratioP2
6193;SDS011;3130;41.564;23.280;2022-12-18T00:02:16;18.83;;;12.30;;
6193;SDS011;3130;41.564;23.280;2022-12-18T00:04:43;17.37;;;11.57;;
6193;SDS011;3130;41.564;23.280;2022-12-18T00:07:10;13.80;;;9.80;;
6193;SDS011;3130;41.564;23.280;2022-12-18T00:09:37;19.70;;;8.87;;
6193;SDS011;3130;41.564;23.280;2022-12-18T00:12:04;8.80;;;6.03;;
6193;SDS011;3130;41.564;23.280;2022-12-18T00:14:32;13.43;;;7.53;;
6193;SDS011;3130;41.564;23.280;2022-12-18T00:16:59;10.87;;;6.17;;
6193;SDS011;3130;41.564;23.280;2022-12-18T00:19:27;11.80;;;6.43;;
6193;SDS011;3130;41.564;23.280;2022-12-18T00:21:54;17.23;;;9.37;;
6193;SDS011;3130;41.564;23.280;2022-12-18T00:24:23;19.87;;;9.57;;
6193;SDS011;3130;41.564;23.280;2022-12-18T00:26:50;12.83;;;9.27;;
6193;SDS011;3130;41.564;23.280;2022-12-18T00:29:17;13.50;;;8.73;;
6193;SDS011;3130;41.564;23.280;2022-12-18T00:31:44;12.43;;;9.17;;
6193;SDS011;3130;41.564;23.280;2022-12-18T00:34:11;15.60;;;10.00;;
6193;SDS011;3130;41.564;23.280;2022-12-18T00:36:40;14.87;;;9.30;;
6193;SDS011;3130;41.564;23.280;2022-12-18T00:39:07;13.47;;;8.80;;
6193;SDS011;3130;41.564;23.280;2022-12-18T00:41:36;13.63;;;9.03;;
6193;SDS011;3130;41.564;23.280;2022-12-18T00:44:20;16.20;;;9.10;;
6193;SDS011;3130;41.564;23.280;2022-12-18T00:46:47;14.27;;;9.57;;
6193;SDS011;3130;41.564;23.280;2022-12-18T00:49:15;17.27;;;9.77;;
6193;SDS011;3130;41.564;23.280;2022-12-18T00:51:45;17.73;;;8.93;;
6193;SDS011;3130;41.564;23.280;2022-12-18T00:54:30;13.13;;;8.63;;
6193;SDS011;3130;41.564;23.280;2022-12-18T00:56:57;11.17;;;6.70;;
6193;SDS011;3130;41.564;23.280;2022-12-18T00:59:24;11.87;;;8.03;;
6193;SDS011;3130;41.564;23.280;2022-12-18T01:01:51;14.90;;;8.70;;
6193;SDS011;3130;41.564;23.280;2022-12-18T01:04:18;10.63;;;7.57;;
6193;SDS011;3130;41.564;23.280;2022-12-18T01:06:47;11.77;;;7.10;;
6193;SDS011;3130;41.564;23.280;2022-12-18T01:09:14;12.03;;;8.33;;
6193;SDS011;3130;41.564;23.280;2022-12-18T01:11:41;9.90;;;7.77;;
6193;SDS011;3130;41.564;23.280;2022-12-18T01:14:08;10.53;;;7.20;;
6193;SDS011;3130;41.564;23.280;2022-12-18T01:16:35;13.40;;;7.67;;
6193;SDS011;3130;41.564;23.280;2022-12-18T01:19:02;12.67;;;8.53;;
6193;SDS011;3130;41.564;23.280;2022-12-18T01:21:29;16.17;;;7.20;;
6193;SDS011;3130;41.564;23.280;2022-12-18T01:23:58;13.60;;;8.47;;
6193;SDS011;3130;41.564;23.280;2022-12-18T01:26:25;11.60;;;7.70;;
6193;SDS011;3130;41.564;23.280;2022-12-18T01:28:55;12.93;;;7.73;;
6193;SDS011;3130;41.564;23.280;2022-12-18T01:31:23;10.83;;;7.93;;
6193;SDS011;3130;41.564;23.280;2022-12-18T01:33:52;10.77;;;7.60;;
6193;SDS011;3130;41.564;23.280;2022-12-18T01:36:20;11.63;;;7.37;;
6193;SDS011;3130;41.564;23.280;2022-12-18T01:38:48;11.87;;;8.10;;
6193;SDS011;3130;41.564;23.280;2022-12-18T01:41:20;12.50;;;7.40;;
6193;SDS011;3130;41.564;23.280;2022-12-18T01:43:50;11.17;;;7.93;;
6193;SDS011;3130;41.564;23.280;2022-12-18T01:46:19;11.67;;;8.20;;
6193;SDS011;3130;41.564;23.280;2022-12-18T01:48:48;13.00;;;9.20;;
6193;SDS011;3130;41.564;23.280;2022-12-18T01:51:19;13.83;;;9.07;;
6193;SDS011;3130;41.564;23.280;2022-12-18T01:53:46;12.93;;;7.40;;
6193;SDS011;3130;41.564;23.280;2022-12-18T01:56:15;16.23;;;8.10;;
6193;SDS011;3130;41.564;23.280;2022-12-18T01:58:55;14.07;;;7.03;;
6193;SDS011;3130;41.564;23.280;2022-12-18T02:01:25;13.53;;;8.00;;
6193;SDS011;3130;41.564;23.280;2022-12-18T02:03:52;12.47;;;8.47;;
6193;SDS011;3130;41.564;23.280;2022-12-18T02:06:20;13.03;;;8.10;;
6193;SDS011;3130;41.564;23.280;2022-12-18T02:08:59;11.97;;;8.17;;
6193;SDS011;3130;41.564;23.280;2022-12-18T02:11:39;15.10;;;8.50;;
6193;SDS011;3130;41.564;23.280;2022-12-18T02:14:18;14.53;;;8.90;;
6193;SDS011;3130;41.564;23.280;2022-12-18T02:16:56;13.50;;;9.13;;
6193;SDS011;3130;41.564;23.280;2022-12-18T02:19:41;14.97;;;9.73;;
6193;SDS011;3130;41.564;23.280;2022-12-18T02:22:24;13.47;;;8.60;;
6193;SDS011;3130;41.564;23.280;2022-12-18T02:25:00;14.43;;;9.67;;
6193;SDS011;3130;41.564;23.280;2022-12-18T02:27:39;16.13;;;9.07;;
6193;SDS011;3130;41.564;23.280;2022-12-18T02:30:10;16.83;;;10.27;;
6193;SDS011;3130;41.564;23.280;2022-12-18T02:32:38;15.03;;;11.67;;
6193;SDS011;3130;41.564;23.280;2022-12-18T02:35:12;15.87;;;10.97;;
6193;SDS011;3130;41.564;23.280;2022-12-18T02:37:43;18.07;;;10.30;;
6193;SDS011;3130;41.564;23.280;2022-12-18T02:40:13;17.57;;;12.37;;
6193;SDS011;3130;41.564;23.280;2022-12-18T02:42:43;17.70;;;12.33;;
6193;SDS011;3130;41.564;23.280;2022-12-18T02:45:10;19.27;;;11.23;;
6193;SDS011;3130;41.564;23.280;2022-12-18T02:47:38;19.07;;;12.57;;
6193;SDS011;3130;41.564;23.280;2022-12-18T02:50:10;17.50;;;13.03;;
6193;SDS011;3130;41.564;23.280;2022-12-18T02:52:45;16.00;;;11.60;;
6193;SDS011;3130;41.564;23.280;2022-12-18T02:55:25;20.40;;;11.70;;
6193;SDS011;3130;41.564;23.280;2022-12-18T02:58:03;17.33;;;12.03;;
6193;SDS011;3130;41.564;23.280;2022-12-18T03:00:37;17.23;;;12.87;;
6193;SDS011;3130;41.564;23.280;2022-12-18T03:03:10;18.63;;;11.87;;
6193;SDS011;3130;41.564;23.280;2022-12-18T03:05:41;19.70;;;11.40;;
6193;SDS011;3130;41.564;23.280;2022-12-18T03:08:15;20.77;;;12.20;;
6193;SDS011;3130;41.564;23.280;2022-12-18T03:10:45;21.80;;;11.70;;
6193;SDS011;3130;41.564;23.280;2022-12-18T03:13:20;18.13;;;11.67;;
6193;SDS011;3130;41.564;23.280;2022-12-18T03:15:56;17.87;;;11.23;;
6193;SDS011;3130;41.564;23.280;2022-12-18T03:18:26;19.90;;;11.27;;
6193;SDS011;3130;41.564;23.280;2022-12-18T03:20:57;14.63;;;9.10;;
6193;SDS011;3130;41.564;23.280;2022-12-18T03:23:27;16.40;;;9.33;;
6193;SDS011;3130;41.564;23.280;2022-12-18T03:25:59;16.30;;;10.03;;
6193;SDS011;3130;41.564;23.280;2022-12-18T03:28:32;12.50;;;8.77;;
6193;SDS011;3130;41.564;23.280;2022-12-18T03:31:05;18.13;;;9.23;;
6193;SDS011;3130;41.564;23.280;2022-12-18T03:33:37;12.40;;;9.10;;
6193;SDS011;3130;41.564;23.280;2022-12-18T03:36:07;13.83;;;8.20;;
6193;SDS011;3130;41.564;23.280;2022-12-18T03:38:35;16.07;;;8.60;;
6193;SDS011;3130;41.564;23.280;2022-12-18T03:41:03;12.77;;;8.80;;
6193;SDS011;3130;41.564;23.280;2022-12-18T03:43:40;11.73;;;7.70;;
6193;SDS011;3130;41.564;23.280;2022-12-18T03:46:15;17.47;;;8.87;;
6193;SDS011;3130;41.564;23.280;2022-12-18T03:48:51;13.23;;;7.90;;
6193;SDS011;3130;41.564;23.280;2022-12-18T03:51:24;12.00;;;8.03;;
6193;SDS011;3130;41.564;23.280;2022-12-18T03:53:55;12.93;;;7.87;;
6193;SDS011;3130;41.564;23.280;2022-12-18T03:56:26;12.83;;;8.03;;
6193;SDS011;3130;41.564;23.280;2022-12-18T03:58:58;12.10;;;8.23;;
6193;SDS011;3130;41.564;23.280;2022-12-18T04:01:29;16.60;;;8.60;;
6193;SDS011;3130;41.564;23.280;2022-12-18T04:03:58;14.07;;;8.43;;
6193;SDS011;3130;41.564;23.280;2022-12-18T04:06:27;19.57;;;9.67;;
6193;SDS011;3130;41.564;23.280;2022-12-18T04:08:56;12.00;;;7.27;;
6193;SDS011;3130;41.564;23.280;2022-12-18T04:11:24;11.70;;;8.30;;
6193;SDS011;3130;41.564;23.280;2022-12-18T04:13:52;17.60;;;9.07;;
6193;SDS011;3130;41.564;23.280;2022-12-18T04:16:24;13.63;;;9.20;;
6193;SDS011;3130;41.564;23.280;2022-12-18T04:18:51;13.07;;;7.47;;
6193;SDS011;3130;41.564;23.280;2022-12-18T04:21:19;14.43;;;8.27;;
6193;SDS011;3130;41.564;23.280;2022-12-18T04:23:47;12.87;;;8.47;;
6193;SDS011;3130;41.564;23.280;2022-12-18T04:26:15;13.60;;;7.83;;
6193;SDS011;3130;41.564;23.280;2022-12-18T04:28:42;12.57;;;7.90;;
6193;SDS011;3130;41.564;23.280;2022-12-18T04:31:09;13.70;;;10.40;;
6193;SDS011;3130;41.564;23.280;2022-12-18T04:33:37;14.23;;;9.00;;
6193;SDS011;3130;41.564;23.280;2022-12-18T04:36:05;14.57;;;9.43;;
6193;SDS011;3130;41.564;23.280;2022-12-18T04:38:32;17.50;;;11.43;;
6193;SDS011;3130;41.564;23.280;2022-12-18T04:40:59;13.27;;;10.37;;
6193;SDS011;3130;41.564;23.280;2022-12-18T04:43:26;21.10;;;10.40;;
6193;SDS011;3130;41.564;23.280;2022-12-18T04:45:53;17.17;;;10.03;;
6193;SDS011;3130;41.564;23.280;2022-12-18T04:48:27;16.30;;;10.40;;
6193;SDS011;3130;41.564;23.280;2022-12-18T04:50:55;15.63;;;10.13;;
6193;SDS011;3130;41.564;23.280;2022-12-18T04:53:22;12.40;;;8.83;;
6193;SDS011;3130;41.564;23.280;2022-12-18T04:55:50;16.83;;;10.10;;
6193;SDS011;3130;41.564;23.280;2022-12-18T04:58:17;19.40;;;10.73;;
6193;SDS011;3130;41.564;23.280;2022-12-18T05:00:44;16.00;;;9.73;;
6193;SDS011;3130;41.564;23.280;2022-12-18T05:03:11;23.33;;;11.83;;
6193;SDS011;3130;41.564;23.280;2022-12-18T05:05:38;17.83;;;11.43;;
6193;SDS011;3130;41.564;23.280;2022-12-18T05:08:06;19.37;;;10.47;;
6193;SDS011;3130;41.564;23.280;2022-12-18T05:10:33;16.83;;;10.40;;
6193;SDS011;3130;41.564;23.280;2022-12-18T05:13:00;16.50;;;10.13;;
6193;SDS011;3130;41.564;23.280;2022-12-18T05:15:28;13.03;;;9.70;;
6193;SDS011;3130;41.564;23.280;2022-12-18T05:17:56;14.90;;;9.73;;
6193;SDS011;3130;41.564;23.280;2022-12-18T05:20:23;19.73;;;10.37;;
6193;SDS011;3130;41.564;23.280;2022-12-18T05:22:50;17.87;;;10.33;;
6193;SDS011;3130;41.564;23.280;2022-12-18T05:25:19;13.60;;;9.27;;
6193;SDS011;3130;41.564;23.280;2022-12-18T05:27:47;15.97;;;9.57;;
6193;SDS011;3130;41.564;23.280;2022-12-18T05:30:14;16.93;;;11.00;;
6193;SDS011;3130;41.564;23.280;2022-12-18T05:32:42;14.63;;;9.70;;
6193;SDS011;3130;41.564;23.280;2022-12-18T05:35:10;12.33;;;9.33;;
6193;SDS011;3130;41.564;23.280;2022-12-18T05:37:37;15.23;;;9.37;;
6193;SDS011;3130;41.564;23.280;2022-12-18T05:40:05;16.63;;;9.10;;
6193;SDS011;3130;41.564;23.280;2022-12-18T05:42:34;15.17;;;9.30;;
6193;SDS011;3130;41.564;23.280;2022-12-18T05:45:02;17.17;;;9.63;;
6193;SDS011;3130;41.564;23.280;2022-12-18T05:47:29;12.73;;;8.20;;
6193;SDS011;3130;41.564;23.280;2022-12-18T05:49:56;17.60;;;8.27;;
6193;SDS011;3130;41.564;23.280;2022-12-18T05:52:23;15.03;;;8.93;;
6193;SDS011;3130;41.564;23.280;2022-12-18T05:54:52;17.30;;;9.13;;
6193;SDS011;3130;41.564;23.280;2022-12-18T05:57:19;23.93;;;13.77;;
6193;SDS011;3130;41.564;23.280;2022-12-18T05:59:47;18.47;;;10.83;;
6193;SDS011;3130;41.564;23.280;2022-12-18T06:02:14;29.03;;;18.73;;
6193;SDS011;3130;41.564;23.280;2022-12-18T06:04:41;16.67;;;10.53;;
6193;SDS011;3130;41.564;23.280;2022-12-18T06:07:08;12.83;;;9.07;;
6193;SDS011;3130;41.564;23.280;2022-12-18T06:09:35;18.50;;;9.70;;
6193;SDS011;3130;41.564;23.280;2022-12-18T06:12:03;14.53;;;9.70;;
6193;SDS011;3130;41.564;23.280;2022-12-18T06:14:30;16.40;;;9.83;;
6193;SDS011;3130;41.564;23.280;2022-12-18T06:16:58;18.37;;;8.87;;
6193;SDS011;3130;41.564;23.280;2022-12-18T06:19:25;15.03;;;9.43;;
6193;SDS011;3130;41.564;23.280;2022-12-18T06:21:52;17.73;;;9.77;;
6193;SDS011;3130;41.564;23.280;2022-12-18T06:24:20;13.03;;;8.90;;
6193;SDS011;3130;41.564;23.280;2022-12-18T06:26:50;13.97;;;9.37;;
6193;SDS011;3130;41.564;23.280;2022-12-18T06:29:17;14.33;;;9.37;;
6193;SDS011;3130;41.564;23.280;2022-12-18T06:31:44;15.83;;;8.47;;
6193;SDS011;3130;41.564;23.280;2022-12-18T06:34:13;12.37;;;8.17;;
6193;SDS011;3130;41.564;23.280;2022-12-18T06:36:40;11.70;;;7.77;;
6193;SDS011;3130;41.564;23.280;2022-12-18T06:39:10;11.97;;;8.23;;
6193;SDS011;3130;41.564;23.280;2022-12-18T06:41:37;11.30;;;8.20;;
6193;SDS011;3130;41.564;23.280;2022-12-18T06:44:04;14.43;;;8.73;;
6193;SDS011;3130;41.564;23.280;2022-12-18T06:46:32;10.80;;;7.87;;
6193;SDS011;3130;41.564;23.280;2022-12-18T06:48:59;12.47;;;7.33;;
6193;SDS011;3130;41.564;23.280;2022-12-18T06:51:27;11.13;;;6.50;;
6193;SDS011;3130;41.564;23.280;2022-12-18T06:53:55;11.17;;;7.20;;
6193;SDS011;3130;41.564;23.280;2022-12-18T06:56:22;9.63;;;7.10;;
6193;SDS011;3130;41.564;23.280;2022-12-18T06:58:49;14.60;;;6.87;;
6193;SDS011;3130;41.564;23.280;2022-12-18T07:01:16;14.50;;;8.53;;
6193;SDS011;3130;41.564;23.280;2022-12-18T07:03:43;11.03;;;7.07;;
6193;SDS011;3130;41.564;23.280;2022-12-18T07:06:13;10.97;;;6.27;;
6193;SDS011;3130;41.564;23.280;2022-12-18T07:08:43;11.47;;;6.60;;
6193;SDS011;3130;41.564;23.280;2022-12-18T07:11:11;11.90;;;7.03;;
6193;SDS011;3130;41.564;23.280;2022-12-18T07:13:38;10.27;;;6.63;;
6193;SDS011;3130;41.564;23.280;2022-12-18T07:16:06;7.77;;;6.03;;
6193;SDS011;3130;41.564;23.280;2022-12-18T07:18:35;10.83;;;7.20;;
6193;SDS011;3130;41.564;23.280;2022-12-18T07:21:05;10.50;;;7.47;;
6193;SDS011;3130;41.564;23.280;2022-12-18T07:23:32;14.67;;;8.60;;
6193;SDS011;3130;41.564;23.280;2022-12-18T07:26:03;11.90;;;7.93;;
6193;SDS011;3130;41.564;23.280;2022-12-18T07:28:30;12.70;;;7.47;;
6193;SDS011;3130;41.564;23.280;2022-12-18T07:30:58;8.70;;;6.90;;
6193;SDS011;3130;41.564;23.280;2022-12-18T07:33:28;13.60;;;7.83;;
6193;SDS011;3130;41.564;23.280;2022-12-18T07:35:58;11.40;;;6.97;;
6193;SDS011;3130;41.564;23.280;2022-12-18T07:38:25;11.60;;;6.73;;
6193;SDS011;3130;41.564;23.280;2022-12-18T07:40:52;10.43;;;6.87;;
6193;SDS011;3130;41.564;23.280;2022-12-18T07:43:21;9.50;;;7.43;;
6193;SDS011;3130;41.564;23.280;2022-12-18T07:45:49;12.63;;;7.20;;
6193;SDS011;3130;41.564;23.280;2022-12-18T07:48:22;13.00;;;6.80;;
6193;SDS011;3130;41.564;23.280;2022-12-18T07:50:57;8.67;;;6.80;;
6193;SDS011;3130;41.564;23.280;2022-12-18T07:53:25;8.87;;;6.03;;
6193;SDS011;3130;41.564;23.280;2022-12-18T07:55:54;6.80;;;5.43;;
6193;SDS011;3130;41.564;23.280;2022-12-18T07:58:23;10.10;;;6.40;;
6193;SDS011;3130;41.564;23.280;2022-12-18T08:00:51;12.80;;;8.27;;
6193;SDS011;3130;41.564;23.280;2022-12-18T08:03:18;15.63;;;7.50;;
6193;SDS011;3130;41.564;23.280;2022-12-18T08:05:46;15.93;;;6.03;;
6193;SDS011;3130;41.564;23.280;2022-12-18T08:08:13;10.20;;;6.60;;
6193;SDS011;3130;41.564;23.280;2022-12-18T08:10:42;8.80;;;7.00;;
6193;SDS011;3130;41.564;23.280;2022-12-18T08:13:10;10.97;;;7.10;;
6193;SDS011;3130;41.564;23.280;2022-12-18T08:15:39;10.83;;;7.53;;
6193;SDS011;3130;41.564;23.280;2022-12-18T08:18:06;8.17;;;6.37;;
6193;SDS011;3130;41.564;23.280;2022-12-18T08:20:33;8.10;;;5.97;;
6193;SDS011;3130;41.564;23.280;2022-12-18T08:23:00;7.73;;;5.13;;
6193;SDS011;3130;41.564;23.280;2022-12-18T08:25:27;6.80;;;5.20;;
6193;SDS011;3130;41.564;23.280;2022-12-18T08:27:54;8.43;;;6.27;;
6193;SDS011;3130;41.564;23.280;2022-12-18T08:30:21;14.27;;;10.47;;
6193;SDS011;3130;41.564;23.280;2022-12-18T08:32:52;12.43;;;9.23;;
6193;SDS011;3130;41.564;23.280;2022-12-18T08:35:20;10.97;;;6.50;;
6193;SDS011;3130;41.564;23.280;2022-12-18T08:37:48;8.30;;;5.50;;
6193;SDS011;3130;41.564;23.280;2022-12-18T08:40:15;7.63;;;5.63;;
6193;SDS011;3130;41.564;23.280;2022-12-18T08:42:42;6.47;;;4.70;;
6193;SDS011;3130;41.564;23.280;2022-12-18T08:45:27;6.60;;;4.73;;
6193;SDS011;3130;41.564;23.280;2022-12-18T08:47:55;7.03;;;5.20;;
6193;SDS011;3130;41.564;23.280;2022-12-18T08:50:22;11.40;;;5.27;;
6193;SDS011;3130;41.564;23.280;2022-12-18T08:52:49;7.13;;;5.20;;
6193;SDS011;3130;41.564;23.280;2022-12-18T08:55:16;6.93;;;4.67;;
6193;SDS011;3130;41.564;23.280;2022-12-18T08:57:47;12.30;;;5.67;;
6193;SDS011;3130;41.564;23.280;2022-12-18T09:00:14;7.17;;;5.10;;
6193;SDS011;3130;41.564;23.280;2022-12-18T09:02:42;9.37;;;6.27;;
6193;SDS011;3130;41.564;23.280;2022-12-18T09:05:10;7.93;;;5.13;;
6193;SDS011;3130;41.564;23.280;2022-12-18T09:07:37;9.13;;;6.13;;
6193;SDS011;3130;41.564;23.280;2022-12-18T09:10:05;7.27;;;5.53;;
6193;SDS011;3130;41.564;23.280;2022-12-18T09:12:32;6.03;;;4.30;;
6193;SDS011;3130;41.564;23.280;2022-12-18T09:14:59;14.23;;;5.93;;
6193;SDS011;3130;41.564;23.280;2022-12-18T09:17:26;7.97;;;4.47;;
6193;SDS011;3130;41.564;23.280;2022-12-18T09:19:53;8.00;;;5.20;;
6193;SDS011;3130;41.564;23.280;2022-12-18T09:22:22;10.53;;;5.17;;
6193;SDS011;3130;41.564;23.280;2022-12-18T09:24:49;8.20;;;5.70;;
6193;SDS011;3130;41.564;23.280;2022-12-18T09:27:16;7.97;;;5.40;;
6193;SDS011;3130;41.564;23.280;2022-12-18T09:29:43;7.37;;;5.13;;
6193;SDS011;3130;41.564;23.280;2022-12-18T09:32:10;10.73;;;5.87;;
6193;SDS011;3130;41.564;23.280;2022-12-18T09:34:37;12.27;;;8.00;;
6193;SDS011;3130;41.564;23.280;2022-12-18T09:37:04;10.50;;;6.70;;
6193;SDS011;3130;41.564;23.280;2022-12-18T09:39:33;8.37;;;5.70;;
6193;SDS011;3130;41.564;23.280;2022-12-18T09:42:00;9.97;;;5.93;;
6193;SDS011;3130;41.564;23.280;2022-12-18T09:44:28;7.83;;;4.77;;
6193;SDS011;3130;41.564;23.280;2022-12-18T09:46:59;9.67;;;4.87;;
6193;SDS011;3130;41.564;23.280;2022-12-18T09:49:35;7.17;;;5.33;;
6193;SDS011;3130;41.564;23.280;2022-12-18T09:52:08;8.50;;;5.83;;
6193;SDS011;3130;41.564;23.280;2022-12-18T09:54:41;8.53;;;6.03;;
6193;SDS011;3130;41.564;23.280;2022-12-18T09:57:12;6.27;;;4.87;;
6193;SDS011;3130;41.564;23.280;2022-12-18T09:59:41;9.57;;;5.30;;
6193;SDS011;3130;41.564;23.280;2022-12-18T10:02:16;6.83;;;5.13;;
6193;SDS011;3130;41.564;23.280;2022-12-18T10:04:48;7.30;;;5.40;;
6193;SDS011;3130;41.564;23.280;2022-12-18T10:07:28;8.07;;;5.47;;
6193;SDS011;3130;41.564;23.280;2022-12-18T10:10:06;5.50;;;4.83;;
6193;SDS011;3130;41.564;23.280;2022-12-18T10:12:41;7.77;;;4.83;;
6193;SDS011;3130;41.564;23.280;2022-12-18T10:15:13;8.90;;;5.50;;
6193;SDS011;3130;41.564;23.280;2022-12-18T10:17:47;8.90;;;4.83;;
6193;SDS011;3130;41.564;23.280;2022-12-18T10:20:20;10.43;;;5.33;;
6193;SDS011;3130;41.564;23.280;2022-12-18T10:22:56;9.90;;;5.40;;
6193;SDS011;3130;41.564;23.280;2022-12-18T10:25:32;7.37;;;5.30;;
6193;SDS011;3130;41.564;23.280;2022-12-18T10:28:08;12.33;;;7.30;;
6193;SDS011;3130;41.564;23.280;2022-12-18T10:30:38;12.83;;;7.70;;
6193;SDS011;3130;41.564;23.280;2022-12-18T10:33:08;10.87;;;7.00;;
6193;SDS011;3130;41.564;23.280;2022-12-18T10:35:38;16.93;;;11.13;;
6193;SDS011;3130;41.564;23.280;2022-12-18T10:38:20;9.93;;;6.53;;
6193;SDS011;3130;41.564;23.280;2022-12-18T10:40:50;11.07;;;6.30;;
6193;SDS011;3130;41.564;23.280;2022-12-18T10:43:20;6.97;;;4.93;;
6193;SDS011;3130;41.564;23.280;2022-12-18T10:46:00;8.87;;;6.70;;
6193;SDS011;3130;41.564;23.280;2022-12-18T10:48:31;9.20;;;6.63;;
6193;SDS011;3130;41.564;23.280;2022-12-18T10:50:59;9.87;;;6.30;;
6193;SDS011;3130;41.564;23.280;2022-12-18T10:53:27;7.23;;;4.73;;
6193;SDS011;3130;41.564;23.280;2022-12-18T10:55:58;11.43;;;7.47;;
6193;SDS011;3130;41.564;23.280;2022-12-18T10:58:27;13.80;;;6.30;;
6193;SDS011;3130;41.564;23.280;2022-12-18T11:01:07;11.70;;;5.90;;
6193;SDS011;3130;41.564;23.280;2022-12-18T11:03:36;9.53;;;5.57;;
6193;SDS011;3130;41.564;23.280;2022-12-18T11:06:06;7.03;;;4.70;;
6193;SDS011;3130;41.564;23.280;2022-12-18T11:08:35;6.93;;;5.07;;
6193;SDS011;3130;41.564;23.280;2022-12-18T11:11:04;8.83;;;6.03;;
6193;SDS011;3130;41.564;23.280;2022-12-18T11:13:42;8.40;;;5.90;;
6193;SDS011;3130;41.564;23.280;2022-12-18T11:16:24;7.00;;;4.57;;
6193;SDS011;3130;41.564;23.280;2022-12-18T11:18:51;10.43;;;4.70;;
6193;SDS011;3130;41.564;23.280;2022-12-18T11:21:19;9.37;;;6.03;;
6193;SDS011;3130;41.564;23.280;2022-12-18T11:23:46;9.50;;;5.80;;
6193;SDS011;3130;41.564;23.280;2022-12-18T11:26:18;10.17;;;7.33;;
6193;SDS011;3130;41.564;23.280;2022-12-18T11:28:47;14.30;;;7.83;;
6193;SDS011;3130;41.564;23.280;2022-12-18T11:31:18;10.53;;;8.03;;
6193;SDS011;3130;41.564;23.280;2022-12-18T11:33:50;18.03;;;10.00;;
6193;SDS011;3130;41.564;23.280;2022-12-18T11:36:23;18.90;;;13.07;;
6193;SDS011;3130;41.564;23.280;2022-12-18T11:38:51;13.33;;;9.97;;
6193;SDS011;3130;41.564;23.280;2022-12-18T11:41:23;14.60;;;8.90;;
6193;SDS011;3130;41.564;23.280;2022-12-18T11:44:10;13.10;;;7.13;;
6193;SDS011;3130;41.564;23.280;2022-12-18T11:46:43;23.37;;;13.93;;
6193;SDS011;3130;41.564;23.280;2022-12-18T11:49:17;14.03;;;6.40;;
6193;SDS011;3130;41.564;23.280;2022-12-18T11:51:50;9.43;;;6.60;;
6193;SDS011;3130;41.564;23.280;2022-12-18T11:54:22;11.33;;;8.60;;
6193;SDS011;3130;41.564;23.280;2022-12-18T11:56:52;10.87;;;7.70;;
6193;SDS011;3130;41.564;23.280;2022-12-18T11:59:25;10.23;;;7.87;;
6193;SDS011;3130;41.564;23.280;2022-12-18T12:02:01;9.87;;;7.53;;
6193;SDS011;3130;41.564;23.280;2022-12-18T12:04:50;9.57;;;7.03;;
6193;SDS011;3130;41.564;23.280;2022-12-18T12:07:33;7.23;;;5.63;;
6193;SDS011;3130;41.564;23.280;2022-12-18T12:10:12;8.73;;;6.30;;
6193;SDS011;3130;41.564;23.280;2022-12-18T12:12:55;7.03;;;5.47;;
6193;SDS011;3130;41.564;23.280;2022-12-18T12:15:41;8.10;;;6.00;;
6193;SDS011;3130;41.564;23.280;2022-12-18T12:18:20;7.93;;;5.43;;
6193;SDS011;3130;41.564;23.280;2022-12-18T12:20:57;7.70;;;6.37;;
6193;SDS011;3130;41.564;23.280;2022-12-18T12:23:33;9.40;;;6.40;;
6193;SDS011;3130;41.564;23.280;2022-12-18T12:26:10;11.30;;;6.80;;
6193;SDS011;3130;41.564;23.280;2022-12-18T12:28:50;13.23;;;9.83;;
6193;SDS011;3130;41.564;23.280;2022-12-18T12:31:27;10.77;;;7.53;;
6193;SDS011;3130;41.564;23.280;2022-12-18T12:34:07;12.97;;;9.00;;
6193;SDS011;3130;41.564;23.280;2022-12-18T12:36:46;11.63;;;9.10;;
6193;SDS011;3130;41.564;23.280;2022-12-18T12:39:27;9.27;;;6.67;;
6193;SDS011;3130;41.564;23.280;2022-12-18T12:41:56;10.07;;;7.57;;
6193;SDS011;3130;41.564;23.280;2022-12-18T12:44:44;11.70;;;8.40;;
6193;SDS011;3130;41.564;23.280;2022-12-18T12:47:15;11.80;;;9.13;;
6193;SDS011;3130;41.564;23.280;2022-12-18T12:49:47;13.23;;;9.07;;
6193;SDS011;3130;41.564;23.280;2022-12-18T12:52:16;14.97;;;10.30;;
6193;SDS011;3130;41.564;23.280;2022-12-18T12:54:51;10.17;;;7.90;;
6193;SDS011;3130;41.564;23.280;2022-12-18T12:57:19;12.60;;;8.53;;
6193;SDS011;3130;41.564;23.280;2022-12-18T12:59:52;13.07;;;8.13;;
6193;SDS011;3130;41.564;23.280;2022-12-18T13:02:28;12.37;;;8.17;;
6193;SDS011;3130;41.564;23.280;2022-12-18T13:05:01;12.83;;;8.53;;
6193;SDS011;3130;41.564;23.280;2022-12-18T13:07:37;15.37;;;9.63;;
6193;SDS011;3130;41.564;23.280;2022-12-18T13:10:12;12.57;;;10.03;;
6193;SDS011;3130;41.564;23.280;2022-12-18T13:12:53;12.63;;;8.63;;
6193;SDS011;3130;41.564;23.280;2022-12-18T13:15:25;15.00;;;9.07;;
6193;SDS011;3130;41.564;23.280;2022-12-18T13:18:03;10.77;;;8.07;;
6193;SDS011;3130;41.564;23.280;2022-12-18T13:20:40;12.43;;;8.63;;
6193;SDS011;3130;41.564;23.280;2022-12-18T13:23:28;13.50;;;8.30;;
6193;SDS011;3130;41.564;23.280;2022-12-18T13:25:57;15.33;;;8.97;;
6193;SDS011;3130;41.564;23.280;2022-12-18T13:34:34;8.50;;;6.60;;
6193;SDS011;3130;41.564;23.280;2022-12-18T13:43:27;15.53;;;10.17;;
6193;SDS011;3130;41.564;23.280;2022-12-18T13:46:01;18.07;;;9.43;;
6193;SDS011;3130;41.564;23.280;2022-12-18T13:48:31;14.63;;;9.63;;
6193;SDS011;3130;41.564;23.280;2022-12-18T13:51:03;14.80;;;9.60;;
6193;SDS011;3130;41.564;23.280;2022-12-18T13:53:36;10.63;;;7.93;;
6193;SDS011;3130;41.564;23.280;2022-12-18T13:56:05;18.23;;;11.03;;
6193;SDS011;3130;41.564;23.280;2022-12-18T13:58:32;20.80;;;9.33;;
6193;SDS011;3130;41.564;23.280;2022-12-18T14:01:00;14.57;;;10.27;;
6193;SDS011;3130;41.564;23.280;2022-12-18T14:03:29;14.17;;;9.23;;
6193;SDS011;3130;41.564;23.280;2022-12-18T14:05:59;17.77;;;11.20;;
6193;SDS011;3130;41.564;23.280;2022-12-18T14:08:34;11.53;;;8.80;;
6193;SDS011;3130;41.564;23.280;2022-12-18T14:11:05;18.83;;;11.93;;
6193;SDS011;3130;41.564;23.280;2022-12-18T14:13:36;15.93;;;11.93;;
6193;SDS011;3130;41.564;23.280;2022-12-18T14:16:07;14.77;;;9.27;;
6193;SDS011;3130;41.564;23.280;2022-12-18T14:18:42;11.03;;;8.67;;
6193;SDS011;3130;41.564;23.280;2022-12-18T14:21:19;15.20;;;8.53;;
6193;SDS011;3130;41.564;23.280;2022-12-18T14:23:49;13.27;;;8.20;;
6193;SDS011;3130;41.564;23.280;2022-12-18T14:26:30;14.30;;;10.07;;
6193;SDS011;3130;41.564;23.280;2022-12-18T14:28:59;12.60;;;8.27;;
6193;SDS011;3130;41.564;23.280;2022-12-18T14:31:40;17.37;;;10.47;;
6193;SDS011;3130;41.564;23.280;2022-12-18T14:34:07;16.90;;;11.93;;
6193;SDS011;3130;41.564;23.280;2022-12-18T14:36:44;19.20;;;12.43;;
6193;SDS011;3130;41.564;23.280;2022-12-18T14:39:22;15.30;;;10.57;;
6193;SDS011;3130;41.564;23.280;2022-12-18T14:41:50;13.80;;;10.50;;
6193;SDS011;3130;41.564;23.280;2022-12-18T14:44:18;16.37;;;10.30;;
6193;SDS011;3130;41.564;23.280;2022-12-18T14:46:46;12.43;;;8.30;;
6193;SDS011;3130;41.564;23.280;2022-12-18T14:49:18;14.00;;;9.87;;
6193;SDS011;3130;41.564;23.280;2022-12-18T14:51:50;12.03;;;8.37;;
6193;SDS011;3130;41.564;23.280;2022-12-18T14:54:19;12.37;;;9.53;;
6193;SDS011;3130;41.564;23.280;2022-12-18T14:56:50;16.27;;;10.43;;
6193;SDS011;3130;41.564;23.280;2022-12-18T14:59:21;17.17;;;11.53;;
6193;SDS011;3130;41.564;23.280;2022-12-18T15:01:55;22.13;;;13.10;;
6193;SDS011;3130;41.564;23.280;2022-12-18T15:04:26;24.20;;;15.87;;
6193;SDS011;3130;41.564;23.280;2022-12-18T15:07:06;20.50;;;13.70;;
6193;SDS011;3130;41.564;23.280;2022-12-18T15:09:39;23.77;;;16.17;;
6193;SDS011;3130;41.564;23.280;2022-12-18T15:15:00;23.97;;;15.33;;
6193;SDS011;3130;41.564;23.280;2022-12-18T15:17:27;19.57;;;13.83;;
6193;SDS011;3130;41.564;23.280;2022-12-18T15:19:58;22.50;;;14.97;;
6193;SDS011;3130;41.564;23.280;2022-12-18T15:22:29;19.53;;;12.70;;
6193;SDS011;3130;41.564;23.280;2022-12-18T15:25:00;23.10;;;14.20;;